createdAt,value
2017-12-06T00:00:44.671Z,0.20
2017-12-06T00:03:11.800Z,0.00
2017-12-06T00:05:39.198Z,0.00
2017-12-06T00:08:05.582Z,0.10
2017-12-06T00:10:31.958Z,0.20
2017-12-06T00:13:06.026Z,0.10
2017-12-06T00:15:38.562Z,0.10
2017-12-06T00:18:04.960Z,0.20
2017-12-06T00:20:31.358Z,0.30
2017-12-06T00:22:57.768Z,0.30
2017-12-06T00:25:24.143Z,0.40
2017-12-06T00:27:50.559Z,0.50
2017-12-06T00:30:16.946Z,0.50
2017-12-06T00:32:44.107Z,0.70
2017-12-06T00:35:10.478Z,0.70
2017-12-06T00:37:36.850Z,0.80
2017-12-06T00:40:03.957Z,1.00
2017-12-06T00:42:30.330Z,0.90
2017-12-06T00:44:57.438Z,1.10
2017-12-06T00:47:23.822Z,1.10
2017-12-06T00:49:50.932Z,1.30
2017-12-06T00:52:17.307Z,1.20
2017-12-06T00:54:44.426Z,1.40
2017-12-06T00:57:10.794Z,1.30
2017-12-06T00:59:37.898Z,1.30
2017-12-06T01:02:04.279Z,1.30
2017-12-06T01:04:30.655Z,1.20
2017-12-06T01:06:57.023Z,1.30
2017-12-06T01:09:25.020Z,1.40
2017-12-06T01:11:51.419Z,1.30
2017-12-06T01:14:17.801Z,1.30
2017-12-06T01:16:44.203Z,1.40
2017-12-06T01:19:11.320Z,1.20
2017-12-06T01:21:37.727Z,1.20
2017-12-06T01:24:04.100Z,1.20
2017-12-06T01:26:30.468Z,1.30
2017-12-06T01:28:57.940Z,1.20
2017-12-06T01:31:24.322Z,1.30
2017-12-06T01:33:50.720Z,1.20
2017-12-06T01:36:17.110Z,1.20
2017-12-06T01:38:44.221Z,1.20
2017-12-06T01:41:10.591Z,1.20
2017-12-06T01:43:37.735Z,1.30
2017-12-06T01:46:04.884Z,1.30
2017-12-06T01:48:32.016Z,1.30
2017-12-06T01:50:58.444Z,1.30
2017-12-06T01:53:24.818Z,1.40
2017-12-06T01:55:51.978Z,1.40
2017-12-06T01:58:18.407Z,1.30
2017-12-06T02:00:44.778Z,1.40
2017-12-06T02:03:11.169Z,1.40
2017-12-06T02:05:38.314Z,1.40
2017-12-06T02:08:06.606Z,1.40
2017-12-06T02:10:33.098Z,1.40
2017-12-06T02:12:59.519Z,1.40
2017-12-06T02:15:25.915Z,1.40
2017-12-06T02:17:52.365Z,1.40
2017-12-06T02:20:18.768Z,1.50
2017-12-06T02:22:45.195Z,1.50
2017-12-06T02:25:12.354Z,1.50
2017-12-06T02:27:38.772Z,1.40
2017-12-06T02:30:06.932Z,1.40
2017-12-06T02:32:33.326Z,1.40
2017-12-06T02:35:00.724Z,1.50
2017-12-06T02:37:27.139Z,1.50
2017-12-06T02:40:05.582Z,1.50
2017-12-06T02:42:45.023Z,1.50
2017-12-06T02:45:23.587Z,1.40
2017-12-06T02:47:49.994Z,1.50
2017-12-06T02:50:16.378Z,1.50
2017-12-06T02:52:42.760Z,1.50
2017-12-06T02:55:09.147Z,1.50
2017-12-06T02:57:35.559Z,1.50
2017-12-06T03:00:01.947Z,1.40
2017-12-06T03:02:29.063Z,1.30
2017-12-06T03:04:55.446Z,1.30
2017-12-06T03:07:21.862Z,1.20
2017-12-06T03:09:48.962Z,1.40
2017-12-06T03:12:15.339Z,1.40
2017-12-06T03:14:42.461Z,1.30
2017-12-06T03:17:08.835Z,1.20
2017-12-06T03:19:35.972Z,1.30
2017-12-06T03:22:03.095Z,1.20
2017-12-06T03:24:29.455Z,1.20
2017-12-06T03:26:56.555Z,1.10
2017-12-06T03:29:22.951Z,1.10
2017-12-06T03:31:50.071Z,1.10
2017-12-06T03:34:16.430Z,1.10
2017-12-06T03:36:43.555Z,1.20
2017-12-06T03:39:09.932Z,1.20
2017-12-06T03:41:36.286Z,1.20
2017-12-06T03:44:02.671Z,1.00
2017-12-06T03:46:29.795Z,0.90
2017-12-06T03:48:56.162Z,0.90
2017-12-06T03:51:23.312Z,0.90
2017-12-06T03:53:50.402Z,0.80
2017-12-06T03:56:16.779Z,0.80
2017-12-06T03:58:43.923Z,0.80
2017-12-06T04:01:12.040Z,0.80
2017-12-06T04:03:38.422Z,0.80
2017-12-06T04:06:04.784Z,0.70
2017-12-06T04:08:31.165Z,0.60
2017-12-06T04:10:57.543Z,0.60
2017-12-06T04:13:24.682Z,0.60
2017-12-06T04:15:51.807Z,0.60
2017-12-06T04:18:18.191Z,0.50
2017-12-06T04:23:17.550Z,0.60
2017-12-06T04:25:43.940Z,0.50
2017-12-06T04:28:17.519Z,0.50
2017-12-06T04:30:45.823Z,0.40
2017-12-06T04:33:12.585Z,0.40
2017-12-06T04:35:38.963Z,0.30
2017-12-06T04:38:06.116Z,0.30
2017-12-06T04:40:33.256Z,0.20
2017-12-06T04:42:59.668Z,0.10
2017-12-06T04:45:26.070Z,0.20
2017-12-06T04:47:52.476Z,0.20
2017-12-06T04:50:19.599Z,0.20
2017-12-06T04:52:45.983Z,0.20
2017-12-06T04:55:12.366Z,0.30
2017-12-06T04:57:38.761Z,0.30
2017-12-06T05:00:05.146Z,0.40
2017-12-06T05:02:32.295Z,0.30
2017-12-06T05:04:58.679Z,0.30
2017-12-06T05:07:25.059Z,0.30
2017-12-06T05:09:51.440Z,0.30
2017-12-06T05:12:17.818Z,0.50
2017-12-06T05:14:44.182Z,0.60
2017-12-06T05:17:10.590Z,0.60
2017-12-06T05:19:37.010Z,0.60
2017-12-06T05:22:03.399Z,0.50
2017-12-06T05:24:29.774Z,0.50
2017-12-06T05:26:56.128Z,0.50
2017-12-06T05:29:22.497Z,0.50
2017-12-06T05:31:48.863Z,0.50
2017-12-06T05:34:15.219Z,0.60
2017-12-06T05:36:41.598Z,0.60
2017-12-06T05:39:07.977Z,0.60
2017-12-06T05:41:34.354Z,0.60
2017-12-06T05:44:00.706Z,0.70
2017-12-06T05:46:27.855Z,0.70
2017-12-06T05:48:54.303Z,0.70
2017-12-06T05:51:20.687Z,0.80
2017-12-06T05:53:47.098Z,0.80
2017-12-06T05:56:13.518Z,0.70
2017-12-06T05:58:40.918Z,0.80
2017-12-06T06:01:07.327Z,0.80
2017-12-06T06:03:33.719Z,0.90
2017-12-06T06:06:00.087Z,1.00
2017-12-06T06:08:26.470Z,1.00
2017-12-06T06:10:53.842Z,1.00
2017-12-06T06:13:21.219Z,1.00
2017-12-06T06:15:47.584Z,0.90
2017-12-06T06:18:15.505Z,0.90
2017-12-06T06:20:41.916Z,0.80
2017-12-06T06:23:10.087Z,0.80
2017-12-06T06:25:36.500Z,0.80
2017-12-06T06:28:02.915Z,0.70
2017-12-06T06:30:31.035Z,0.80
2017-12-06T06:32:57.400Z,0.80
2017-12-06T06:35:23.783Z,0.80
2017-12-06T06:37:50.223Z,0.70
2017-12-06T06:40:16.615Z,0.70
2017-12-06T06:42:42.982Z,0.60
2017-12-06T06:45:10.134Z,0.60
2017-12-06T06:47:37.546Z,0.70
2017-12-06T06:50:04.154Z,0.70
2017-12-06T06:52:30.574Z,0.80
2017-12-06T06:54:56.960Z,0.70
2017-12-06T06:57:23.360Z,0.70
2017-12-06T06:59:49.736Z,0.70
2017-12-06T07:02:16.836Z,1.00
2017-12-06T07:04:43.270Z,1.00
2017-12-06T07:07:09.634Z,1.00
2017-12-06T07:09:35.996Z,1.00
2017-12-06T07:12:03.119Z,1.00
2017-12-06T07:14:29.486Z,0.90
2017-12-06T07:16:55.849Z,0.90
2017-12-06T07:19:22.250Z,0.80
2017-12-06T07:21:49.443Z,0.80
2017-12-06T07:24:15.823Z,0.80
2017-12-06T07:26:43.391Z,1.00
2017-12-06T07:29:10.826Z,0.90
2017-12-06T07:31:37.495Z,0.90
2017-12-06T07:34:04.153Z,0.90
2017-12-06T07:36:30.588Z,1.10
2017-12-06T07:38:57.022Z,1.10
2017-12-06T07:41:23.402Z,1.10
2017-12-06T07:43:49.764Z,1.20
2017-12-06T07:46:16.911Z,1.30
2017-12-06T07:48:44.032Z,1.30
2017-12-06T07:51:10.400Z,1.30
2017-12-06T07:53:36.754Z,1.30
2017-12-06T07:56:03.142Z,1.30
2017-12-06T07:58:35.535Z,1.30
2017-12-06T08:01:02.639Z,1.30
2017-12-06T08:03:29.006Z,1.30
2017-12-06T08:05:56.235Z,1.50
2017-12-06T08:08:22.607Z,1.50
2017-12-06T08:10:48.974Z,1.60
2017-12-06T08:13:15.394Z,1.50
2017-12-06T08:15:41.875Z,1.40
2017-12-06T08:18:08.235Z,1.50
2017-12-06T08:20:35.343Z,1.50
2017-12-06T08:23:01.750Z,1.50
2017-12-06T08:25:28.127Z,1.40
2017-12-06T08:27:54.486Z,1.40
2017-12-06T08:30:21.774Z,1.40
2017-12-06T08:32:49.167Z,1.50
2017-12-06T08:35:16.306Z,1.40
2017-12-06T08:37:42.673Z,1.30
2017-12-06T08:40:09.793Z,1.40
2017-12-06T08:42:36.202Z,1.40
2017-12-06T08:45:02.587Z,1.40
2017-12-06T08:47:29.703Z,1.60
2017-12-06T08:50:03.108Z,1.50
2017-12-06T08:52:29.486Z,1.40
2017-12-06T08:54:55.895Z,1.30
2017-12-06T08:57:23.035Z,1.30
2017-12-06T08:59:49.459Z,1.20
2017-12-06T09:02:15.830Z,1.40
2017-12-06T09:04:42.426Z,1.50
2017-12-06T09:07:10.083Z,1.50
2017-12-06T09:09:36.450Z,1.40
2017-12-06T09:12:03.902Z,1.20
2017-12-06T09:14:31.090Z,1.30
2017-12-06T09:16:57.466Z,1.20
2017-12-06T09:19:24.759Z,1.30
2017-12-06T09:21:51.158Z,1.60
2017-12-06T09:24:17.551Z,1.60
2017-12-06T09:26:45.525Z,1.60
2017-12-06T09:29:11.883Z,1.50
2017-12-06T09:31:38.280Z,1.50
2017-12-06T09:34:05.093Z,1.40
2017-12-06T09:36:31.486Z,1.30
2017-12-06T09:38:57.880Z,1.20
2017-12-06T09:41:25.299Z,1.40
2017-12-06T09:43:52.523Z,1.40
2017-12-06T09:46:18.955Z,1.30
2017-12-06T09:48:45.564Z,1.30
2017-12-06T09:51:11.935Z,1.50
2017-12-06T09:53:38.290Z,1.60
2017-12-06T09:56:06.537Z,1.50
2017-12-06T09:58:33.039Z,1.50
2017-12-06T10:00:59.454Z,1.50
2017-12-06T10:03:25.979Z,1.60
2017-12-06T10:05:54.425Z,1.60
2017-12-06T10:08:20.851Z,1.60
2017-12-06T10:10:47.198Z,1.50
2017-12-06T10:13:14.018Z,1.40
2017-12-06T10:15:40.415Z,1.50
2017-12-06T10:18:06.754Z,1.50
2017-12-06T10:20:33.127Z,1.60
2017-12-06T10:22:59.538Z,1.70
2017-12-06T10:25:26.343Z,1.70
2017-12-06T10:27:53.503Z,1.80
2017-12-06T10:30:20.630Z,1.80
2017-12-06T10:32:47.747Z,1.80
2017-12-06T10:35:14.199Z,1.70
2017-12-06T10:37:40.571Z,1.70
2017-12-06T10:40:07.078Z,1.90
2017-12-06T10:42:34.494Z,1.90
2017-12-06T10:45:02.619Z,2.00
2017-12-06T10:47:29.751Z,2.00
2017-12-06T10:49:56.151Z,2.00
2017-12-06T10:52:22.504Z,2.00
2017-12-06T10:54:48.858Z,2.00
2017-12-06T10:57:15.219Z,1.90
2017-12-06T10:59:41.575Z,2.00
2017-12-06T11:02:07.960Z,2.20
2017-12-06T11:04:35.095Z,2.00
2017-12-06T11:07:01.456Z,1.90
2017-12-06T11:09:28.567Z,1.90
2017-12-06T11:11:55.007Z,1.90
2017-12-06T11:14:21.379Z,1.90
2017-12-06T11:16:48.471Z,2.00
2017-12-06T11:19:14.848Z,2.00
2017-12-06T11:21:41.962Z,1.80
2017-12-06T11:24:08.358Z,1.80
2017-12-06T11:26:34.729Z,1.90
2017-12-06T11:29:01.078Z,2.00
2017-12-06T11:31:27.446Z,2.00
2017-12-06T11:33:53.811Z,2.00
2017-12-06T11:36:20.187Z,2.10
2017-12-06T11:38:47.428Z,1.90
2017-12-06T11:41:13.795Z,1.90
2017-12-06T11:43:40.899Z,2.00
2017-12-06T11:46:07.274Z,2.00
2017-12-06T11:48:34.382Z,2.30
2017-12-06T11:51:00.734Z,2.20
2017-12-06T11:53:27.859Z,2.20
2017-12-06T11:55:54.223Z,2.20
2017-12-06T11:58:21.342Z,2.20
2017-12-06T12:00:48.070Z,2.20
2017-12-06T12:03:15.479Z,2.10
2017-12-06T12:05:42.042Z,2.00
2017-12-06T12:08:08.622Z,1.90
2017-12-06T12:10:36.238Z,1.90
2017-12-06T12:13:03.392Z,2.10
2017-12-06T12:15:29.752Z,2.10
2017-12-06T12:17:56.144Z,2.10
2017-12-06T12:20:22.507Z,2.00
2017-12-06T12:22:48.874Z,2.00
2017-12-06T12:25:15.263Z,2.00
2017-12-06T12:27:41.602Z,2.00
2017-12-06T12:30:07.958Z,2.10
2017-12-06T12:32:34.311Z,2.20
2017-12-06T12:35:01.402Z,2.20
2017-12-06T12:37:27.798Z,2.20
2017-12-06T12:39:54.926Z,2.20
2017-12-06T12:42:21.312Z,2.20
2017-12-06T12:44:47.707Z,2.20
2017-12-06T12:47:14.902Z,2.10
2017-12-06T12:49:41.327Z,2.10
2017-12-06T12:52:07.735Z,2.20
2017-12-06T12:54:34.861Z,1.90
2017-12-06T12:57:01.246Z,1.90
2017-12-06T12:59:27.723Z,2.00
2017-12-06T13:01:54.132Z,2.10
2017-12-06T13:04:20.534Z,2.20
2017-12-06T13:06:47.666Z,2.20
2017-12-06T13:09:14.807Z,2.20
2017-12-06T13:11:41.207Z,2.10
2017-12-06T13:14:07.611Z,2.10
2017-12-06T13:16:34.011Z,2.20
2017-12-06T13:19:00.402Z,2.30
2017-12-06T13:21:26.798Z,2.50
2017-12-06T13:23:53.935Z,2.70
2017-12-06T13:26:21.106Z,2.60
2017-12-06T13:28:48.506Z,2.50
2017-12-06T13:31:14.966Z,2.30
2017-12-06T13:33:41.415Z,2.10
2017-12-06T13:36:08.562Z,2.20
2017-12-06T13:38:36.763Z,2.00
2017-12-06T13:41:03.175Z,2.00
2017-12-06T13:43:30.559Z,1.90
2017-12-06T13:45:56.973Z,1.90
2017-12-06T13:48:23.371Z,1.90
2017-12-06T13:50:49.758Z,2.00
2017-12-06T13:53:16.355Z,2.10
2017-12-06T13:55:42.758Z,2.20
2017-12-06T13:58:09.154Z,2.20
2017-12-06T14:00:35.579Z,2.10
2017-12-06T14:03:02.768Z,2.10
2017-12-06T14:05:29.139Z,2.10
2017-12-06T14:07:55.547Z,2.10
2017-12-06T14:10:21.970Z,2.10
2017-12-06T14:12:48.374Z,1.90
2017-12-06T14:15:14.759Z,1.90
2017-12-06T14:17:41.179Z,1.90
2017-12-06T14:20:07.597Z,1.70
2017-12-06T14:22:33.994Z,1.70
2017-12-06T14:25:02.375Z,1.50
2017-12-06T14:27:29.510Z,1.50
2017-12-06T14:29:56.643Z,1.40
2017-12-06T14:32:23.055Z,1.40
2017-12-06T14:34:49.590Z,1.50
2017-12-06T14:37:16.055Z,1.50
2017-12-06T14:39:42.463Z,1.60
2017-12-06T14:42:10.138Z,1.70
2017-12-06T14:44:36.586Z,1.70
2017-12-06T14:47:03.995Z,1.70
2017-12-06T14:49:30.394Z,1.60
2017-12-06T14:51:57.538Z,1.60
2017-12-06T14:54:24.697Z,1.40
2017-12-06T14:56:53.111Z,1.40
2017-12-06T14:59:19.530Z,1.30
2017-12-06T15:01:45.922Z,1.30
2017-12-06T15:04:12.318Z,1.20
2017-12-06T15:06:39.722Z,1.20
2017-12-06T15:09:06.203Z,1.30
2017-12-06T15:11:33.133Z,1.40
2017-12-06T15:13:59.540Z,1.50
2017-12-06T15:16:26.686Z,1.50
2017-12-06T15:18:53.830Z,1.50
2017-12-06T15:21:20.275Z,1.50
2017-12-06T15:23:47.419Z,1.50
2017-12-06T15:26:13.832Z,1.50
2017-12-06T15:28:40.218Z,1.40
2017-12-06T15:31:06.615Z,1.40
2017-12-06T15:33:33.921Z,1.20
2017-12-06T15:36:00.327Z,1.40
2017-12-06T15:38:26.739Z,1.40
2017-12-06T15:40:53.175Z,1.60
2017-12-06T15:43:20.395Z,1.60
2017-12-06T15:45:46.823Z,1.50
2017-12-06T15:48:13.222Z,1.50
2017-12-06T15:50:39.738Z,1.40
2017-12-06T15:53:06.903Z,1.20
2017-12-06T15:55:33.538Z,1.20
2017-12-06T15:58:00.671Z,1.20
2017-12-06T16:00:27.806Z,1.20
2017-12-06T16:02:54.215Z,1.20
2017-12-06T16:05:20.615Z,1.10
2017-12-06T16:07:48.075Z,1.10
2017-12-06T16:10:15.459Z,1.20
2017-12-06T16:12:41.855Z,1.20
2017-12-06T16:15:08.978Z,1.20
2017-12-06T16:17:35.408Z,1.20
2017-12-06T16:20:01.798Z,1.20
2017-12-06T16:22:28.298Z,1.20
2017-12-06T16:24:55.710Z,1.30
2017-12-06T16:27:22.111Z,1.30
2017-12-06T16:29:48.522Z,1.30
2017-12-06T16:32:16.675Z,1.40
2017-12-06T16:35:06.757Z,1.30
2017-12-06T16:37:33.315Z,1.30
2017-12-06T16:40:01.565Z,1.20
2017-12-06T16:42:28.289Z,1.10
2017-12-06T16:44:54.810Z,1.30
2017-12-06T16:47:21.235Z,1.30
2017-12-06T16:49:47.875Z,1.30
2017-12-06T16:52:15.399Z,1.40
2017-12-06T16:54:42.583Z,1.50
2017-12-06T16:57:09.015Z,1.50
2017-12-06T16:59:35.446Z,1.50
2017-12-06T17:02:01.951Z,1.50
2017-12-06T17:04:29.208Z,1.60
2017-12-06T17:06:56.342Z,1.50
2017-12-06T17:09:22.763Z,1.50
2017-12-06T17:11:49.160Z,1.40
2017-12-06T17:14:15.558Z,1.30
2017-12-06T17:16:42.724Z,1.40
2017-12-06T17:19:16.816Z,1.30
2017-12-06T17:21:43.950Z,1.30
2017-12-06T17:24:10.359Z,1.30
2017-12-06T17:26:36.782Z,1.30
2017-12-06T17:29:16.402Z,1.40
2017-12-06T17:31:44.715Z,1.50
2017-12-06T17:34:11.196Z,1.50
2017-12-06T17:36:38.351Z,1.80
2017-12-06T17:39:05.507Z,1.80
2017-12-06T17:41:32.663Z,1.90
2017-12-06T17:43:59.828Z,2.00
2017-12-06T17:46:26.227Z,2.00
2017-12-06T17:48:53.606Z,2.00
2017-12-06T17:51:20.933Z,1.90
2017-12-06T17:53:48.077Z,1.90
2017-12-06T17:56:14.528Z,1.90
2017-12-06T17:58:41.684Z,2.00
2017-12-06T18:01:08.843Z,2.00
2017-12-06T18:03:35.327Z,2.00
2017-12-06T18:06:01.755Z,2.00
2017-12-06T18:08:28.301Z,1.90
2017-12-06T18:10:54.717Z,1.70
2017-12-06T18:13:21.163Z,1.80
2017-12-06T18:15:48.635Z,1.90
2017-12-06T18:18:15.065Z,1.90
2017-12-06T18:20:41.470Z,2.00
2017-12-06T18:23:07.889Z,2.00
2017-12-06T18:25:34.316Z,2.00
2017-12-06T18:28:00.791Z,2.00
2017-12-06T18:30:27.211Z,1.90
2017-12-06T18:32:53.664Z,1.70
2017-12-06T18:35:20.087Z,1.60
2017-12-06T18:37:53.642Z,1.30
2017-12-06T18:40:20.800Z,1.40
2017-12-06T18:42:47.951Z,1.30
2017-12-06T18:45:16.147Z,1.20
2017-12-06T18:47:43.603Z,1.20
2017-12-06T18:50:10.015Z,1.30
2017-12-06T18:52:37.171Z,1.30
2017-12-06T18:55:04.353Z,1.30
2017-12-06T18:57:30.752Z,1.30
2017-12-06T18:59:57.981Z,1.40
2017-12-06T19:02:24.438Z,1.40
2017-12-06T19:04:51.599Z,1.20
2017-12-06T19:07:17.975Z,1.20
2017-12-06T19:09:44.396Z,1.20
2017-12-06T19:12:10.832Z,1.20
2017-12-06T19:14:37.239Z,1.10
2017-12-06T19:17:03.631Z,0.90
2017-12-06T19:19:29.999Z,1.00
2017-12-06T19:21:56.439Z,1.10
2017-12-06T19:24:23.539Z,1.10
2017-12-06T19:26:49.927Z,1.10
2017-12-06T19:29:16.334Z,1.00
2017-12-06T19:31:43.484Z,1.00
2017-12-06T19:34:10.641Z,1.00
2017-12-06T19:36:37.755Z,1.10
2017-12-06T19:39:04.167Z,1.00
2017-12-06T19:41:30.571Z,1.10
2017-12-06T19:43:57.631Z,1.20
2017-12-06T19:46:24.002Z,1.30
2017-12-06T19:48:50.511Z,1.30
2017-12-06T19:51:16.895Z,1.30
2017-12-06T19:53:44.031Z,1.20
2017-12-06T19:56:12.866Z,1.20
2017-12-06T19:58:39.372Z,1.10
2017-12-06T20:01:06.496Z,1.10
2017-12-06T20:03:32.991Z,1.10
2017-12-06T20:06:00.477Z,1.10
2017-12-06T20:08:27.060Z,1.10
2017-12-06T20:10:54.583Z,1.00
2017-12-06T20:13:20.962Z,1.00
2017-12-06T20:15:47.400Z,0.90
2017-12-06T20:18:14.571Z,1.10
2017-12-06T20:20:41.479Z,1.10
2017-12-06T20:23:15.684Z,1.20
2017-12-06T20:25:42.088Z,1.20
2017-12-06T20:28:08.500Z,1.20
2017-12-06T20:30:34.999Z,1.30
2017-12-06T20:33:02.443Z,0.80
2017-12-06T20:35:28.828Z,0.90
2017-12-06T20:37:55.260Z,0.90
2017-12-06T20:40:22.236Z,1.00
2017-12-06T20:42:48.638Z,0.90
2017-12-06T20:45:15.086Z,0.70
2017-12-06T20:47:41.494Z,0.70
2017-12-06T20:50:07.971Z,0.50
2017-12-06T20:52:34.391Z,0.40
2017-12-06T20:55:00.786Z,0.50
2017-12-06T20:57:27.163Z,0.60
2017-12-06T20:59:54.846Z,0.70
2017-12-06T21:02:21.311Z,0.70
2017-12-06T21:04:48.510Z,0.90
2017-12-06T21:07:14.899Z,0.80
2017-12-06T21:09:41.263Z,0.80
2017-12-06T21:12:07.646Z,0.70
2017-12-06T21:14:34.774Z,0.90
2017-12-06T21:17:01.151Z,0.90
2017-12-06T21:19:27.528Z,1.00
2017-12-06T21:21:53.931Z,1.00
2017-12-06T21:24:20.319Z,0.90
2017-12-06T21:26:46.675Z,0.90
2017-12-06T21:29:13.786Z,0.90
2017-12-06T21:31:41.075Z,0.90
2017-12-06T21:34:08.194Z,1.10
2017-12-06T21:36:34.558Z,1.10
2017-12-06T21:39:00.959Z,1.10
2017-12-06T21:41:27.332Z,1.10
2017-12-06T21:43:53.692Z,1.20
2017-12-06T21:46:21.058Z,1.10
2017-12-06T21:48:47.418Z,1.00
2017-12-06T21:51:13.819Z,1.00
2017-12-06T21:53:40.174Z,1.00
2017-12-06T21:56:06.546Z,1.00
2017-12-06T21:58:32.930Z,1.00
2017-12-06T22:00:59.318Z,1.10
2017-12-06T22:03:25.735Z,1.10
2017-12-06T22:05:52.870Z,1.00
2017-12-06T22:08:19.250Z,0.90
2017-12-06T22:10:45.605Z,0.90
2017-12-06T22:13:12.971Z,0.90
2017-12-06T22:15:39.350Z,0.80
2017-12-06T22:18:05.713Z,0.70
2017-12-06T22:20:32.072Z,0.60
2017-12-06T22:22:59.186Z,0.40
2017-12-06T22:25:25.542Z,0.40
2017-12-06T22:27:51.894Z,0.20
2017-12-06T22:30:18.282Z,0.30
2017-12-06T22:32:44.650Z,0.40
2017-12-06T22:35:11.015Z,0.30
2017-12-06T22:37:38.194Z,0.30
2017-12-06T22:40:04.556Z,0.30
2017-12-06T22:42:32.690Z,0.20
2017-12-06T22:45:11.255Z,0.10
2017-12-06T22:47:38.458Z,0.10
2017-12-06T22:50:04.880Z,0.30
2017-12-06T22:52:33.031Z,0.50
2017-12-06T22:54:59.430Z,0.50
2017-12-06T22:57:25.837Z,0.60
2017-12-06T22:59:52.237Z,0.70
2017-12-06T23:02:18.667Z,0.60
2017-12-06T23:04:45.067Z,0.40
2017-12-06T23:07:11.454Z,0.30
2017-12-06T23:09:37.916Z,0.20
2017-12-06T23:12:04.309Z,0.30
2017-12-06T23:14:31.439Z,0.50
2017-12-06T23:16:58.826Z,0.40
2017-12-06T23:19:25.958Z,0.40
2017-12-06T23:21:53.142Z,0.40
2017-12-06T23:24:19.523Z,0.40
2017-12-06T23:26:45.902Z,0.20
2017-12-06T23:29:12.291Z,0.20
2017-12-06T23:31:38.707Z,0.10
2017-12-06T23:34:05.084Z,0.10
2017-12-06T23:36:32.203Z,-0.20
2017-12-06T23:38:58.579Z,-0.20
2017-12-06T23:41:25.759Z,-0.40
2017-12-06T23:43:52.140Z,-0.40
2017-12-06T23:46:19.243Z,-0.30
2017-12-06T23:48:45.594Z,-0.30
2017-12-06T23:51:12.283Z,-0.30
2017-12-06T23:53:39.383Z,-0.50
2017-12-06T23:56:05.743Z,-0.50
2017-12-06T23:58:32.102Z,-0.50
